Thursday, January 18, 2018, 8:43 PM EST

KMUI, Muir Army Air Field / Indiantown

Location: Jonestown, PA, United States Lat: 40.433
Local Time: 8:43 PM EST ( 1:43 GMT) Lon: -76.567
Time Zone: US/Eastern Elev: 488 ft

Show me the last for .
Show Decoded

2018-01-18 19:56 METAR KMUI 190056Z 28007KT 10SM CLR M01/M11 A3006 RMK AO2A SLP189 T10151111 $ =
2018-01-18 18:56 METAR KMUI 182356Z 28007KT 10SM CLR M01/M11 A3004 RMK AO2A SLP182 4/002
                 T10131112 10008 21014 52014 $ =
2018-01-18 17:56 METAR KMUI 182256Z 26005KT 10SM CLR M01/M12 A3002 RMK AO2A SLP175 T10101120 $ =
2018-01-18 16:56 METAR KMUI 182156Z 28009KT 10SM CLR 00/M12 A3001 RMK AO2A SLP172 T10041124 $ =
2018-01-18 15:56 METAR KMUI 182056Z 28009G19KT 10SM CLR 00/M12 A2999 RMK AO2A SLP165 T00031124
                 55007 $ =
2018-01-18 14:56 METAR KMUI 181956Z 28010G18KT 10SM CLR 01/M13 A2998 RMK AO2A SLP163 T00081129 $
                 =
2018-01-18 13:56 METAR KMUI 181856Z 28012G22KT 10SM CLR 01/M14 A3000 RMK AO2A PK WND 28029/38
                 SLP169 T00061138 $ =
2018-01-18 12:56 METAR KMUI 181756Z 28015G22KT 10SM CLR 00/M14 A3001 RMK AO2A PK WND 28028/41
                 SLP173 4/002 T00001144 10027 21077 57031 $ =
2018-01-18 11:56 METAR KMUI 181656Z 29009G21KT 10SM CLR M01/M15 A3005 RMK AO2A SLP186 T10111146 $
                 =
2018-01-18 10:56 METAR KMUI 181556Z 25009KT 10SM CLR M03/M15 A3009 RMK AO2A SLP200 T10201151 $ =
2018-01-18 09:56 METAR KMUI 181456Z 19004KT 10SM CLR M05/M15 A3011 RMK AO2A SLP207 T10491148 $ =
2018-01-18 08:56 METAR KMUI 181356Z 15003KT 10SM CLR M07/M15 A3010 RMK AO2A SLP204 T10671152 $ =
2018-01-18 07:56 METAR KMUI 181256Z 23005KT 10SM SCT170 M07/M16 A3011 RMK AO2A SLP208 T10661163 $
                 =
2018-01-18 06:56 METAR KMUI 181156Z 26005G19KT 10SM CLR M08/M16 A3010 RMK AO2A SLP204 4/003
                 T10761163 11075 21136 55009 $ =
2018-01-18 05:56 METAR KMUI 181056Z AUTO 26007G14KT 10SM CLR M08/M16 A3009 RMK AO2 SLP201
                 T10801159 $ =
2018-01-18 04:56 METAR KMUI 180956Z AUTO 27009G20KT 10SM CLR M08/M16 A3008 RMK AO2 PK WND
                 28026/07 SLP197 T10801159 $ =
2018-01-18 03:56 METAR KMUI 180856Z AUTO 27011G16KT 10SM CLR M08/M15 A3012 RMK AO2 SLP211
                 T10841150 57027 $ =
2018-01-18 02:56 METAR KMUI 180756Z AUTO 00000KT 10SM CLR M12/M15 A3017 RMK AO2 SLP229 T11221151
                 $ =
2018-01-18 01:56 METAR KMUI 180656Z AUTO 22004KT 10SM CLR M11/M14 A3019 RMK AO2 SLP235 T11111145
                 $ =
2018-01-18 00:56 METAR KMUI 180556Z AUTO 22003KT 10SM CLR M11/M14 A3020 RMK AO2 SLP239 T11131144
                 11072 21113 57013 $ =
2018-01-17 23:56 METAR KMUI 180456Z AUTO 26004KT 10SM CLR M10/M14 A3022 RMK AO2 SLP245 T10961144
                 410131096 $ =
2018-01-17 22:56 METAR KMUI 180356Z AUTO 25007KT 10SM CLR M09/M14 A3023 RMK AO2 SLP249 T10871143
                 $ =
2018-01-17 21:56 METAR KMUI 180256Z AUTO 26009G15KT 10SM CLR M08/M14 A3024 RMK AO2 SLP252
                 T10841140 57007 $ =
2018-01-17 20:56 METAR KMUI 180156Z AUTO 27008KT 10SM CLR M08/M13 A3025 RMK AO2 SLP255 T10771135
                 $ =

Support USWX by starting your Amazon purchase here.